Inspiration — C6FM5 — position and weather

sailwx.info

Track history (hours):
 
Tides and Currents Weather Stations Pressure Air Temp Water Temp Dewpoint Dewpoint Depression Visibility Wind Speed Wind Dir Waves Ship Positions

Inspiration

Operator: Carnival Cruise Lines

Last reported at 2017-Apr-29 13:00 UTC. Time now 2017-Apr-29 13:20 UTC.
Position N 32°01' W 117°29'.

Type: Ship. MMSI: 309484000.

Date/timePositionNaut miles runAvg speedWind from/ knotsBaromVisibWave heightAir tempDewpointWater temp
2017-Apr-29 13:00N 32°01' W 117°29'3 6.8
2017-Apr-29 12:30N 32°04' W 117°31'3 7.0
2017-Apr-29 12:00N 32°07' W 117°33'4 7.1
2017-Apr-29 11:30N 32°10' W 117°36'5 9.4
2017-Apr-29 11:01N 32°14' W 117°38'5 9.7
2017-Apr-29 10:30N 32°19' W 117°40'4 8.9
2017-Apr-29 10:00N 32°23' W 117°41'4 7.5
2017-Apr-29 09:30N 32°26' W 117°43'4 7.1
2017-Apr-29 09:00N 32°29' W 117°45'5 9.4
2017-Apr-29 08:31N 32°34' W 117°46'510.2
2017-Apr-29 08:00N 32°39' W 117°47'510.2
2017-Apr-29 07:30N 32°44' W 117°49'510.4
2017-Apr-29 07:00N 32°48' W 117°51'510.5
2017-Apr-29 06:31N 32°53' W 117°54'510.6
2017-Apr-29 06:01N 32°58' W 117°56'510.9
2017-Apr-29 05:31N 33°03' W 117°58'510.9
2017-Apr-29 05:00N 33°08' W 118°01'511.0
2017-Apr-29 04:30N 33°13' W 118°03'611.3
2017-Apr-29 04:00N 33°19' W 118°06'511.0
2017-Apr-29 03:30N 33°24' W 118°08'611.2
2017-Apr-29 03:00N 33°29' W 118°10'611.2
2017-Apr-29 02:31N 33°34' W 118°13'510.7
2017-Apr-29 02:01N 33°40' W 118°12'5 9.5
2017-Apr-29 01:31N 33°44' W 118°11'1 1.6
2017-Apr-29 00:59N 33°45' W 118°11'0 0.0
2017-Apr-29 00:28N 33°45' W 118°11'0 0.0
2017-Apr-28 23:58N 33°45' W 118°11'0 0.0
2017-Apr-28 23:28N 33°45' W 118°11'0 0.0
2017-Apr-28 22:58N 33°45' W 118°11'0 0.0
2017-Apr-28 22:28N 33°45' W 118°11'0 0.0
2017-Apr-28 22:00N 33°45' W 118°11'0 0.0
2017-Apr-28 21:30N 33°45' W 118°11'0 0.0
2017-Apr-28 21:00N 33°45' W 118°11'0 0.0
2017-Apr-28 20:30N 33°45' W 118°11'0 0.0
2017-Apr-28 20:00N 33°45' W 118°11'0 0.0
2017-Apr-28 19:29N 33°45' W 118°11'0 0.0
2017-Apr-28 18:59N 33°45' W 118°11'0 0.0
2017-Apr-28 18:29N 33°45' W 118°11'0 0.0
2017-Apr-28 17:53N 33°45' W 118°11'0 0.0
2017-Apr-28 17:28N 33°45' W 118°11'0 0.0
2017-Apr-28 16:46N 33°45' W 118°11'0 0.0
2017-Apr-28 16:04N 33°45' W 118°11'0 0.0
2017-Apr-28 15:52N 33°45' W 118°11'0 0.0
2017-Apr-28 15:28N 33°45' W 118°11'0 0.0
2017-Apr-28 14:57N 33°45' W 118°11'0 0.0
2017-Apr-28 13:57N 33°45' W 118°11'0 0.0
2017-Apr-28 13:30N 33°45' W 118°11'0 0.0
2017-Apr-28 13:00N 33°45' W 118°11'0 0.6
2017-Apr-28 12:30N 33°45' W 118°11'4 8.3
2017-Apr-28 12:00N 33°41' W 118°11'511.2
2017-Apr-28 11:30N 33°35' W 118°09'611.6
2017-Apr-28 11:00N 33°30' W 118°07'611.3
2017-Apr-28 10:31N 33°24' W 118°05'611.5
2017-Apr-28 10:00N 33°19' W 118°02'714.6
2017-Apr-28 09:30N 33°12' W 117°60'714.9
2017-Apr-28 09:00N 33°05' W 117°57'714.8
2017-Apr-28 08:31N 32°58' W 117°55'815.1
2017-Apr-28 08:00N 32°51' W 117°51'714.9
2017-Apr-28 07:30N 32°44' W 117°48'714.7
2017-Apr-28 07:01N 32°37' W 117°45'714.5
2017-Apr-28 06:31N 32°30' W 117°42'714.6
2017-Apr-28 06:00N 32°23' W 117°39'715.0
2017-Apr-28 05:31N 32°16' W 117°36'714.3
2017-Apr-28 05:00N 32°11' W 117°31'814.9
2017-Apr-28 04:29N 32°07' W 117°23'19 1.1
2017-Apr-27 11:27N 31°59' W 117°03'5 9.1
2017-Apr-27 10:56N 32°00' W 117°08'8 8.5
2017-Apr-27 10:01N 32°03' W 117°17'010.8
2017-Apr-27 10:00N 32°03' W 117°17'4 8.5
2017-Apr-27 09:30N 32°05' W 117°22'4 8.5
2017-Apr-27 09:00N 32°07' W 117°26'5 9.3
2017-Apr-27 08:30N 32°08' W 117°31'4 9.0
2017-Apr-27 08:01N 32°12' W 117°35'4 8.7
2017-Apr-27 07:30N 32°16' W 117°37'4 8.4
2017-Apr-27 07:00N 32°19' W 117°39'4 8.6
2017-Apr-27 06:30N 32°23' W 117°41'4 8.5
2017-Apr-27 06:00N 32°27' W 117°44'4 8.7
2017-Apr-27 05:30N 32°31' W 117°46'4 8.6
2017-Apr-27 05:00N 32°35' W 117°48'5 9.8
2017-Apr-27 04:31N 32°39' W 117°51'611.0
2017-Apr-27 04:00N 32°44' W 117°54'611.1
2017-Apr-27 03:30N 32°49' W 117°57'611.0
2017-Apr-27 03:00N 32°54' W 117°60'510.5
2017-Apr-27 02:30N 32°59' W 118°03'510.8
2017-Apr-27 02:00N 33°03' W 118°06'510.5
2017-Apr-27 01:31N 33°08' W 118°08'510.5
2017-Apr-27 01:00N 33°13' W 118°11'5 9.9
2017-Apr-27 00:30N 33°17' W 118°14'4 8.5
2017-Apr-27 00:00N 33°20' W 118°17'1 2.9
2017-Apr-26 23:30N 33°21' W 118°19'0 0.2
2017-Apr-26 23:00N 33°21' W 118°19'0 0.0
2017-Apr-26 22:29N 33°21' W 118°19'0 0.0
2017-Apr-26 21:59N 33°21' W 118°19'0 0.0
2017-Apr-26 21:29N 33°21' W 118°19'0 0.0
2017-Apr-26 20:59N 33°21' W 118°19'0 0.0
2017-Apr-26 20:29N 33°21' W 118°19'0 0.1
2017-Apr-26 19:58N 33°21' W 118°19'0 0.0
2017-Apr-26 19:25N 33°21' W 118°19'0 0.1
2017-Apr-26 18:58N 33°21' W 118°19'0 0.0
2017-Apr-26 18:25N 33°21' W 118°19'0 0.1
2017-Apr-26 17:55N 33°21' W 118°19'0 0.0
2017-Apr-26 17:30N 33°21' W 118°19'0 0.0
2017-Apr-26 17:00N 33°21' W 118°19'0 0.0
2017-Apr-26 16:18N 33°21' W 118°19'0 0.0
2017-Apr-26 16:00N 33°21' W 118°19'0 0.0
2017-Apr-26 15:29N 33°21' W 118°19'0 0.1
2017-Apr-26 14:59N 33°21' W 118°19'0 0.0
2017-Apr-26 14:30N 33°21' W 118°19'4 3.7
2017-Apr-26 13:30N 33°18' W 118°17'3 6.6
2017-Apr-26 13:00N 33°15' W 118°16'3 6.5
2017-Apr-26 12:30N 33°11' W 118°16'3 7.0
2017-Apr-26 12:01N 33°08' W 118°15'3 6.7
2017-Apr-26 11:30N 33°05' W 118°14'3 6.8
2017-Apr-26 11:00N 33°02' W 118°11'3 6.6
2017-Apr-26 10:30N 32°59' W 118°09'3 6.6
2017-Apr-26 10:00N 32°57' W 118°07'3 6.6
2017-Apr-26 09:30N 32°54' W 118°04'3 6.3
2017-Apr-26 09:00N 32°51' W 118°04'2 4.0
2017-Apr-26 08:31N 32°50' W 118°02'3 6.5
2017-Apr-26 08:00N 32°52' W 117°58'3 5.5
2017-Apr-26 07:30N 32°49' W 117°58'3 6.1
2017-Apr-26 07:00N 32°46' W 117°57'4 7.2
2017-Apr-26 06:30N 32°44' W 117°54'3 6.8
2017-Apr-26 06:00N 32°41' W 117°51'3 7.0
2017-Apr-26 05:30N 32°38' W 117°48'4 7.3
2017-Apr-26 05:01N 32°35' W 117°46'4 7.2
2017-Apr-26 04:30N 32°32' W 117°44'4 7.1
2017-Apr-26 04:00N 32°29' W 117°42'3 6.8
2017-Apr-26 03:30N 32°26' W 117°40'3 6.7
2017-Apr-26 03:00N 32°23' W 117°38'3 6.9
2017-Apr-26 02:30N 32°21' W 117°36'3 6.8
2017-Apr-26 02:01N 32°18' W 117°33'4 7.1
2017-Apr-26 01:30N 32°15' W 117°31'4 7.3
2017-Apr-26 01:00N 32°12' W 117°29'4 7.1
2017-Apr-26 00:30N 32°09' W 117°26'4 7.2
2017-Apr-25 23:55N 32°05' W 117°29'410.7
2017-Apr-25 23:30N 32°04' W 117°34'510.5
2017-Apr-25 23:00N 32°03' W 117°40'5 9.9
2017-Apr-25 22:30N 32°01' W 117°46'5 9.8
2017-Apr-25 22:00N 31°60' W 117°51'6 9.5
2017-Apr-25 21:25N 31°58' W 117°58'4 9.5
2017-Apr-25 21:00N 31°58' W 118°02'4 8.0
2017-Apr-25 20:30N 31°58' W 118°07'4 7.0
2017-Apr-25 19:58N 31°55' W 118°10'4 6.3
2017-Apr-25 19:20N 31°52' W 118°08'4 6.7
2017-Apr-25 18:48N 31°49' W 118°05'34 6.7
2017-Apr-25 13:50N 31°58' W 117°27'3 8.0
2017-Apr-25 13:29N 32°01' W 117°28'4 8.2
2017-Apr-25 13:00N 32°05' W 117°30'4 8.1
2017-Apr-25 12:30N 32°09' W 117°31'4 7.8
2017-Apr-25 12:00N 32°12' W 117°32'4 7.8
2017-Apr-25 11:30N 32°16' W 117°34'4 7.9
2017-Apr-25 11:00N 32°20' W 117°35'4 8.2
2017-Apr-25 10:30N 32°24' W 117°37'4 8.1
2017-Apr-25 10:00N 32°27' W 117°39'4 8.0
2017-Apr-25 09:30N 32°31' W 117°41'4 8.0
2017-Apr-25 09:00N 32°35' W 117°42'5 9.6
2017-Apr-25 08:30N 32°39' W 117°44'510.1
2017-Apr-25 08:00N 32°44' W 117°47'510.2
2017-Apr-25 07:30N 32°49' W 117°49'510.3
2017-Apr-25 07:00N 32°53' W 117°51'510.1
2017-Apr-25 06:30N 32°58' W 117°54'510.0
2017-Apr-25 06:00N 33°03' W 117°56'5 9.7
2017-Apr-25 05:30N 33°07' W 117°58'5 9.9
2017-Apr-25 05:00N 33°12' W 118°01'5 9.9
2017-Apr-25 04:30N 33°16' W 118°03'510.3
2017-Apr-25 04:00N 33°20' W 118°07'510.0
2017-Apr-25 03:30N 33°25' W 118°09'510.2
2017-Apr-25 03:00N 33°30' W 118°11'510.8
2017-Apr-25 02:30N 33°35' W 118°13'510.0
2017-Apr-25 02:00N 33°40' W 118°12'4 8.7
2017-Apr-25 01:30N 33°44' W 118°11'1 2.0
2017-Apr-25 00:58N 33°45' W 118°11'0 0.0
2017-Apr-25 00:28N 33°45' W 118°11'0 0.0
2017-Apr-24 23:15N 33°45' W 118°11'0 0.0
2017-Apr-24 21:20N 33°45' W 118°11'0 0.0
2017-Apr-24 20:08N 33°45' W 118°11'0 0.0
2017-Apr-24 19:50N 33°45' W 118°11'0 0.0
2017-Apr-24 18:25N 33°45' W 118°11'0 0.0
2017-Apr-24 17:49N 33°45' W 118°11'0 0.0
2017-Apr-24 17:25N 33°45' W 118°11'0 0.0
2017-Apr-24 16:55N 33°45' W 118°11'0 0.0
2017-Apr-24 16:06N 33°45' W 118°11'0 0.0
2017-Apr-24 16:00N 33°45' W 118°11'0 0.0
2017-Apr-24 15:18N 33°45' W 118°11'0 0.0
2017-Apr-24 15:00N 33°45' W 118°11'0 0.0
2017-Apr-24 14:23N 33°45' W 118°11'0 0.0
2017-Apr-24 13:17N 33°45' W 118°11'0 0.0
2017-Apr-24 13:00N 33°45' W 118°11'1 1.4
2017-Apr-24 12:24N 33°44' W 118°11'3 6.9
2017-Apr-24 11:58N 33°41' W 118°11'4 9.8
2017-Apr-24 11:30N 33°37' W 118°10'611.8
2017-Apr-24 11:00N 33°31' W 118°08'611.8
2017-Apr-24 10:30N 33°26' W 118°05'612.1
2017-Apr-24 10:00N 33°20' W 118°03'713.9
2017-Apr-24 09:30N 33°14' W 117°59'816.1
2017-Apr-24 09:00N 33°06' W 117°56'815.7
2017-Apr-24 08:31N 32°59' W 117°53'815.3
2017-Apr-24 08:01N 32°52' W 117°49'815.3
2017-Apr-24 07:30N 32°44' W 117°47'815.1
2017-Apr-24 07:00N 32°37' W 117°45'815.1
2017-Apr-24 06:31N 32°30' W 117°42'715.0
2017-Apr-24 06:01N 32°23' W 117°39'714.4
2017-Apr-24 05:31N 32°16' W 117°36'714.2
2017-Apr-24 05:00N 32°10' W 117°31'714.9
2017-Apr-24 04:30N 32°07' W 117°23'1115.0
2017-Apr-24 03:48N 32°02' W 117°12'415.1
2017-Apr-24 03:30N 31°60' W 117°07'25 1.8
2017-Apr-23 13:29N 31°50' W 116°40'3 7.2
2017-Apr-23 13:00N 31°50' W 116°44'4 7.1
2017-Apr-23 12:31N 31°50' W 116°48'4 7.2
2017-Apr-23 12:00N 31°50' W 116°52'4 7.3
2017-Apr-23 11:31N 31°50' W 116°57'3 6.9
2017-Apr-23 11:01N 31°50' W 117°01'4 7.2
2017-Apr-23 10:30N 31°50' W 117°05'4 7.2
2017-Apr-23 10:01N 31°50' W 117°09'4 7.2
2017-Apr-23 09:30N 31°49' W 117°13'4 7.2
2017-Apr-23 09:01N 31°45' W 117°12'4 7.2
2017-Apr-23 08:31N 31°42' W 117°10'4 7.4
2017-Apr-23 08:00N 31°39' W 117°08'4 7.7
2017-Apr-23 07:31N 31°36' W 117°06'4 7.5
2017-Apr-23 07:01N 31°32' W 117°04'3 6.9
2017-Apr-23 06:31N 31°29' W 117°02'3 6.4
2017-Apr-23 06:00N 31°26' W 117°01'4 7.5
2017-Apr-23 05:31N 31°24' W 117°05'4 7.4
2017-Apr-23 05:00N 31°22' W 117°09'4 7.5
2017-Apr-23 04:30N 31°21' W 117°13'4 7.6
2017-Apr-23 04:01N 31°19' W 117°17'4 7.6
2017-Apr-23 03:30N 31°17' W 117°21'4 7.4
2017-Apr-23 03:01N 31°15' W 117°24'4 7.4
2017-Apr-23 02:31N 31°14' W 117°28'4 7.4
2017-Apr-23 02:00N 31°12' W 117°32'4 7.4
2017-Apr-23 01:30N 31°10' W 117°36'4 7.3
2017-Apr-23 01:01N 31°08' W 117°40'3 6.8
2017-Apr-23 00:30N 31°11' W 117°43'4 7.4
2017-Apr-23 00:01N 31°13' W 117°45'4 7.4
2017-Apr-22 23:30N 31°16' W 117°48'4 7.8
2017-Apr-22 23:00N 31°19' W 117°51'4 7.8
2017-Apr-22 22:30N 31°23' W 117°54'4 7.7
2017-Apr-22 22:00N 31°26' W 117°56'4 7.7
2017-Apr-22 21:31N 31°29' W 117°59'4 7.7
2017-Apr-22 21:01N 31°32' W 118°02'4 7.8
2017-Apr-22 20:30N 31°35' W 118°05'4 7.8
2017-Apr-22 20:00N 31°38' W 118°07'4 8.3
2017-Apr-22 19:31N 31°41' W 118°10'4 7.5
2017-Apr-22 19:01N 31°45' W 118°12'4 7.3
2017-Apr-22 18:31N 31°46' W 118°08'4 7.4
2017-Apr-22 18:01N 31°47' W 118°04'4 7.1
2017-Apr-22 17:31N 31°48' W 117°60'4 7.2
2017-Apr-22 17:01N 31°49' W 117°56'4 7.5
2017-Apr-22 16:31N 31°51' W 117°52'4 8.3
2017-Apr-22 16:01N 31°52' W 117°47'4 8.4
2017-Apr-22 15:31N 31°54' W 117°43'4 8.0
2017-Apr-22 15:00N 31°55' W 117°38'4 7.2
2017-Apr-22 14:31N 31°56' W 117°34'6 6.0
2017-Apr-22 13:30N 31°59' W 117°28'4 7.3
2017-Apr-22 13:00N 32°03' W 117°30'4 7.4
2017-Apr-22 12:31N 32°06' W 117°32'4 7.1
2017-Apr-22 12:01N 32°09' W 117°33'4 7.3
2017-Apr-22 11:31N 32°13' W 117°34'4 7.5
2017-Apr-22 11:00N 32°16' W 117°36'3 6.9
2017-Apr-22 10:31N 32°20' W 117°38'4 7.5
2017-Apr-22 10:01N 32°23' W 117°39'4 7.7
2017-Apr-22 09:31N 32°27' W 117°41'4 7.5
2017-Apr-22 09:01N 32°30' W 117°43'4 7.5
2017-Apr-22 08:31N 32°33' W 117°45'4 7.9
2017-Apr-22 08:00N 32°37' W 117°46'510.4
2017-Apr-22 07:31N 32°42' W 117°49'510.2
2017-Apr-22 07:01N 32°46' W 117°52'510.1
2017-Apr-22 06:30N 32°51' W 117°53'510.5
2017-Apr-22 06:00N 32°56' W 117°55'510.5
2017-Apr-22 05:31N 33°01' W 117°57'510.6
2017-Apr-22 05:00N 33°06' W 117°60'510.8
2017-Apr-22 04:31N 33°11' W 118°02'510.8
2017-Apr-22 04:00N 33°16' W 118°05'510.6
2017-Apr-22 03:31N 33°21' W 118°07'510.9
2017-Apr-22 03:00N 33°26' W 118°09'611.2
2017-Apr-22 02:31N 33°31' W 118°12'510.9
2017-Apr-22 02:01N 33°37' W 118°13'510.2
2017-Apr-22 01:31N 33°42' W 118°11'3 6.4
2017-Apr-22 00:58N 33°45' W 118°11'0 0.0
2017-Apr-22 00:30N 33°45' W 118°11'0 0.0
2017-Apr-22 00:00N 33°45' W 118°11'0 0.0
2017-Apr-21 23:30N 33°45' W 118°11'0 0.0
2017-Apr-21 22:57N 33°45' W 118°11'0 0.0
2017-Apr-21 22:30N 33°45' W 118°11'0 0.0
2017-Apr-21 21:59N 33°45' W 118°11'0 0.0
2017-Apr-21 21:29N 33°45' W 118°11'0 0.0
2017-Apr-21 20:59N 33°45' W 118°11'0 0.0
2017-Apr-21 20:29N 33°45' W 118°11'0 0.0
2017-Apr-21 19:59N 33°45' W 118°11'0 0.0
2017-Apr-21 19:28N 33°45' W 118°11'0 0.0
2017-Apr-21 18:58N 33°45' W 118°11'0 0.0
2017-Apr-21 18:22N 33°45' W 118°11'0 0.0
2017-Apr-21 17:55N 33°45' W 118°11'0 0.0
2017-Apr-21 17:30N 33°45' W 118°11'0 0.0
2017-Apr-21 17:00N 33°45' W 118°11'0 0.0
2017-Apr-21 16:30N 33°45' W 118°11'0 0.0
2017-Apr-21 16:00N 33°45' W 118°11'0 0.0
2017-Apr-21 15:30N 33°45' W 118°11'0 0.0
2017-Apr-21 14:59N 33°45' W 118°11'0 0.0
2017-Apr-21 14:17N 33°45' W 118°11'0 0.0
2017-Apr-21 13:31N 33°45' W 118°11'0 0.0
2017-Apr-21 13:01N 33°45' W 118°11'0 0.6
2017-Apr-21 12:31N 33°45' W 118°11'3 6.1
2017-Apr-21 12:01N 33°42' W 118°11'510.4
2017-Apr-21 11:30N 33°37' W 118°10'510.8
2017-Apr-21 11:01N 33°32' W 118°08'510.6
2017-Apr-21 10:30N 33°27' W 118°06'510.9
2017-Apr-21 10:01N 33°22' W 118°03'815.7
2017-Apr-21 09:30N 33°14' W 117°60'815.7
2017-Apr-21 09:00N 33°07' W 117°57'815.4
2017-Apr-21 08:30N 32°59' W 117°54'815.6
2017-Apr-21 08:00N 32°52' W 117°52'815.7
2017-Apr-21 07:30N 32°45' W 117°48'815.2
2017-Apr-21 07:00N 32°37' W 117°46'815.0
2017-Apr-21 06:30N 32°30' W 117°43'815.1
2017-Apr-21 06:00N 32°23' W 117°39'714.9
2017-Apr-21 05:31N 32°16' W 117°36'713.9
2017-Apr-21 05:00N 32°11' W 117°31'714.9
2017-Apr-21 04:30N 32°07' W 117°24'715.0
2017-Apr-21 04:01N 32°04' W 117°16'715.0
2017-Apr-21 03:31N 31°60' W 117°08'714.9
2017-Apr-21 03:00N 31°57' W 116°60'714.8
2017-Apr-21 02:30N 31°54' W 116°52'714.8
2017-Apr-21 02:00N 31°51' W 116°44'10 0.8
2017-Apr-20 12:24N 31°56' W 116°55'6 9.2
2017-Apr-20 11:47N 31°58' W 117°01'2 9.1
2017-Apr-20 11:31N 31°59' W 117°04'5 9.2
2017-Apr-20 11:01N 32°00' W 117°09'5 9.6
2017-Apr-20 10:31N 32°02' W 117°14'5 9.9
2017-Apr-20 10:00N 32°04' W 117°19'5 9.9
2017-Apr-20 09:30N 32°06' W 117°25'5 9.9
2017-Apr-20 08:58N 32°08' W 117°31'4 9.0
2017-Apr-20 08:30N 32°11' W 117°34'5 9.9
2017-Apr-20 08:00N 32°15' W 117°37'5 9.8
2017-Apr-20 07:31N 32°20' W 117°39'5 9.7
2017-Apr-20 07:00N 32°24' W 117°42'5 9.8
2017-Apr-20 06:31N 32°28' W 117°46'5 9.8
2017-Apr-20 06:01N 32°32' W 117°49'5 9.3
2017-Apr-20 05:31N 32°36' W 117°50'611.2
2017-Apr-20 05:00N 32°41' W 117°53'611.3
2017-Apr-20 04:31N 32°47' W 117°56'611.1
2017-Apr-20 04:01N 32°52' W 117°59'611.2
2017-Apr-20 03:31N 32°57' W 118°02'611.3
2017-Apr-20 03:01N 33°02' W 118°05'611.5
2017-Apr-20 02:31N 33°07' W 118°08'611.4
2017-Apr-20 02:01N 33°12' W 118°11'611.2
2017-Apr-20 01:31N 33°17' W 118°14'4 7.3
2017-Apr-20 01:01N 33°20' W 118°17'1 1.7
2017-Apr-20 00:31N 33°20' W 118°17'1 2.2
2017-Apr-20 00:01N 33°21' W 118°18'1 1.1
2017-Apr-19 23:28N 33°21' W 118°19'0 0.0
2017-Apr-19 22:58N 33°21' W 118°19'0 0.0
2017-Apr-19 22:25N 33°21' W 118°19'0 0.0
2017-Apr-19 21:58N 33°21' W 118°19'0 0.0
2017-Apr-19 21:31N 33°21' W 118°19'0 0.1
2017-Apr-19 21:00N 33°21' W 118°19'0 0.1
2017-Apr-19 20:30N 33°21' W 118°19'0 0.1
2017-Apr-19 20:00N 33°21' W 118°19'0 0.1
2017-Apr-19 19:24N 33°21' W 118°19'0 0.0
2017-Apr-19 18:59N 33°21' W 118°19'0 0.0
2017-Apr-19 18:29N 33°21' W 118°19'0 0.0
2017-Apr-19 17:59N 33°21' W 118°19'0 0.0
2017-Apr-19 17:29N 33°21' W 118°19'0 0.1
2017-Apr-19 16:59N 33°21' W 118°19'0 0.0
2017-Apr-19 16:28N 33°21' W 118°19'0 0.0
2017-Apr-19 15:58N 33°21' W 118°19'0 0.0
2017-Apr-19 15:16N 33°21' W 118°19'0 0.1
2017-Apr-19 14:58N 33°21' W 118°19'0 0.0
2017-Apr-19 14:30N 33°21' W 118°19'4 3.9
2017-Apr-19 13:31N 33°18' W 118°17'4 7.5
2017-Apr-19 13:01N 33°14' W 118°16'  
Track history (hours):
 
Tides and Currents Weather Stations Pressure Air Temp Water Temp Dewpoint Dewpoint Depression Visibility Wind Speed Wind Dir Waves Ship Positions

Inspiration

Operator: Carnival Cruise Lines

Last reported at 2017-Apr-29 13:00 UTC. Time now 2017-Apr-29 13:20 UTC.
Position N 32°01' W 117°29'.

Type: Ship. MMSI: 309484000.

Date/timePositionNaut miles runAvg speedWind from/ knotsBaromVisibWave heightAir tempDewpointWater temp
2017-Apr-29 13:00N 32°01' W 117°29'3 6.8
2017-Apr-29 12:30N 32°04' W 117°31'3 7.0
2017-Apr-29 12:00N 32°07' W 117°33'4 7.1
2017-Apr-29 11:30N 32°10' W 117°36'5 9.4
2017-Apr-29 11:01N 32°14' W 117°38'5 9.7
2017-Apr-29 10:30N 32°19' W 117°40'4 8.9
2017-Apr-29 10:00N 32°23' W 117°41'4 7.5
2017-Apr-29 09:30N 32°26' W 117°43'4 7.1
2017-Apr-29 09:00N 32°29' W 117°45'5 9.4
2017-Apr-29 08:31N 32°34' W 117°46'510.2
2017-Apr-29 08:00N 32°39' W 117°47'510.2
2017-Apr-29 07:30N 32°44' W 117°49'510.4
2017-Apr-29 07:00N 32°48' W 117°51'510.5
2017-Apr-29 06:31N 32°53' W 117°54'510.6
2017-Apr-29 06:01N 32°58' W 117°56'510.9
2017-Apr-29 05:31N 33°03' W 117°58'510.9
2017-Apr-29 05:00N 33°08' W 118°01'511.0
2017-Apr-29 04:30N 33°13' W 118°03'611.3
2017-Apr-29 04:00N 33°19' W 118°06'511.0
2017-Apr-29 03:30N 33°24' W 118°08'611.2
2017-Apr-29 03:00N 33°29' W 118°10'611.2
2017-Apr-29 02:31N 33°34' W 118°13'510.7
2017-Apr-29 02:01N 33°40' W 118°12'5 9.5
2017-Apr-29 01:31N 33°44' W 118°11'1 1.6
2017-Apr-29 00:59N 33°45' W 118°11'0 0.0
2017-Apr-29 00:28N 33°45' W 118°11'0 0.0
2017-Apr-28 23:58N 33°45' W 118°11'0 0.0
2017-Apr-28 23:28N 33°45' W 118°11'0 0.0
2017-Apr-28 22:58N 33°45' W 118°11'0 0.0
2017-Apr-28 22:28N 33°45' W 118°11'0 0.0
2017-Apr-28 22:00N 33°45' W 118°11'0 0.0
2017-Apr-28 21:30N 33°45' W 118°11'0 0.0
2017-Apr-28 21:00N 33°45' W 118°11'0 0.0
2017-Apr-28 20:30N 33°45' W 118°11'0 0.0
2017-Apr-28 20:00N 33°45' W 118°11'0 0.0
2017-Apr-28 19:29N 33°45' W 118°11'0 0.0
2017-Apr-28 18:59N 33°45' W 118°11'0 0.0
2017-Apr-28 18:29N 33°45' W 118°11'0 0.0
2017-Apr-28 17:53N 33°45' W 118°11'0 0.0
2017-Apr-28 17:28N 33°45' W 118°11'0 0.0
2017-Apr-28 16:46N 33°45' W 118°11'0 0.0
2017-Apr-28 16:04N 33°45' W 118°11'0 0.0
2017-Apr-28 15:52N 33°45' W 118°11'0 0.0
2017-Apr-28 15:28N 33°45' W 118°11'0 0.0
2017-Apr-28 14:57N 33°45' W 118°11'0 0.0
2017-Apr-28 13:57N 33°45' W 118°11'0 0.0
2017-Apr-28 13:30N 33°45' W 118°11'0 0.0
2017-Apr-28 13:00N 33°45' W 118°11'0 0.6
2017-Apr-28 12:30N 33°45' W 118°11'4 8.3
2017-Apr-28 12:00N 33°41' W 118°11'511.2
2017-Apr-28 11:30N 33°35' W 118°09'611.6
2017-Apr-28 11:00N 33°30' W 118°07'611.3
2017-Apr-28 10:31N 33°24' W 118°05'611.5
2017-Apr-28 10:00N 33°19' W 118°02'714.6
2017-Apr-28 09:30N 33°12' W 117°60'714.9
2017-Apr-28 09:00N 33°05' W 117°57'714.8
2017-Apr-28 08:31N 32°58' W 117°55'815.1
2017-Apr-28 08:00N 32°51' W 117°51'714.9
2017-Apr-28 07:30N 32°44' W 117°48'714.7
2017-Apr-28 07:01N 32°37' W 117°45'714.5
2017-Apr-28 06:31N 32°30' W 117°42'714.6
2017-Apr-28 06:00N 32°23' W 117°39'715.0
2017-Apr-28 05:31N 32°16' W 117°36'714.3
2017-Apr-28 05:00N 32°11' W 117°31'814.9
2017-Apr-28 04:29N 32°07' W 117°23'19 1.1
2017-Apr-27 11:27N 31°59' W 117°03'5 9.1
2017-Apr-27 10:56N 32°00' W 117°08'8 8.5
2017-Apr-27 10:01N 32°03' W 117°17'010.8
2017-Apr-27 10:00N 32°03' W 117°17'4 8.5
2017-Apr-27 09:30N 32°05' W 117°22'4 8.5
2017-Apr-27 09:00N 32°07' W 117°26'5 9.3
2017-Apr-27 08:30N 32°08' W 117°31'4 9.0
2017-Apr-27 08:01N 32°12' W 117°35'4 8.7
2017-Apr-27 07:30N 32°16' W 117°37'4 8.4
2017-Apr-27 07:00N 32°19' W 117°39'4 8.6
2017-Apr-27 06:30N 32°23' W 117°41'4 8.5
2017-Apr-27 06:00N 32°27' W 117°44'4 8.7
2017-Apr-27 05:30N 32°31' W 117°46'4 8.6
2017-Apr-27 05:00N 32°35' W 117°48'5 9.8
2017-Apr-27 04:31N 32°39' W 117°51'611.0
2017-Apr-27 04:00N 32°44' W 117°54'611.1
2017-Apr-27 03:30N 32°49' W 117°57'611.0
2017-Apr-27 03:00N 32°54' W 117°60'510.5
2017-Apr-27 02:30N 32°59' W 118°03'510.8
2017-Apr-27 02:00N 33°03' W 118°06'510.5
2017-Apr-27 01:31N 33°08' W 118°08'510.5
2017-Apr-27 01:00N 33°13' W 118°11'5 9.9
2017-Apr-27 00:30N 33°17' W 118°14'4 8.5
2017-Apr-27 00:00N 33°20' W 118°17'1 2.9
2017-Apr-26 23:30N 33°21' W 118°19'0 0.2
2017-Apr-26 23:00N 33°21' W 118°19'0 0.0
2017-Apr-26 22:29N 33°21' W 118°19'0 0.0
2017-Apr-26 21:59N 33°21' W 118°19'0 0.0
2017-Apr-26 21:29N 33°21' W 118°19'0 0.0
2017-Apr-26 20:59N 33°21' W 118°19'0 0.0
2017-Apr-26 20:29N 33°21' W 118°19'0 0.1
2017-Apr-26 19:58N 33°21' W 118°19'0 0.0
2017-Apr-26 19:25N 33°21' W 118°19'0 0.1
2017-Apr-26 18:58N 33°21' W 118°19'0 0.0
2017-Apr-26 18:25N 33°21' W 118°19'0 0.1
2017-Apr-26 17:55N 33°21' W 118°19'0 0.0
2017-Apr-26 17:30N 33°21' W 118°19'0 0.0
2017-Apr-26 17:00N 33°21' W 118°19'0 0.0
2017-Apr-26 16:18N 33°21' W 118°19'0 0.0
2017-Apr-26 16:00N 33°21' W 118°19'0 0.0
2017-Apr-26 15:29N 33°21' W 118°19'0 0.1
2017-Apr-26 14:59N 33°21' W 118°19'0 0.0
2017-Apr-26 14:30N 33°21' W 118°19'4 3.7
2017-Apr-26 13:30N 33°18' W 118°17'3 6.6
2017-Apr-26 13:00N 33°15' W 118°16'3 6.5
2017-Apr-26 12:30N 33°11' W 118°16'3 7.0
2017-Apr-26 12:01N 33°08' W 118°15'3 6.7
2017-Apr-26 11:30N 33°05' W 118°14'3 6.8
2017-Apr-26 11:00N 33°02' W 118°11'3 6.6
2017-Apr-26 10:30N 32°59' W 118°09'3 6.6
2017-Apr-26 10:00N 32°57' W 118°07'3 6.6
2017-Apr-26 09:30N 32°54' W 118°04'3 6.3
2017-Apr-26 09:00N 32°51' W 118°04'2 4.0
2017-Apr-26 08:31N 32°50' W 118°02'3 6.5
2017-Apr-26 08:00N 32°52' W 117°58'3 5.5
2017-Apr-26 07:30N 32°49' W 117°58'3 6.1
2017-Apr-26 07:00N 32°46' W 117°57'4 7.2
2017-Apr-26 06:30N 32°44' W 117°54'3 6.8
2017-Apr-26 06:00N 32°41' W 117°51'3 7.0
2017-Apr-26 05:30N 32°38' W 117°48'4 7.3
2017-Apr-26 05:01N 32°35' W 117°46'4 7.2
2017-Apr-26 04:30N 32°32' W 117°44'4 7.1
2017-Apr-26 04:00N 32°29' W 117°42'3 6.8
2017-Apr-26 03:30N 32°26' W 117°40'3 6.7
2017-Apr-26 03:00N 32°23' W 117°38'3 6.9
2017-Apr-26 02:30N 32°21' W 117°36'3 6.8
2017-Apr-26 02:01N 32°18' W 117°33'4 7.1
2017-Apr-26 01:30N 32°15' W 117°31'4 7.3
2017-Apr-26 01:00N 32°12' W 117°29'4 7.1
2017-Apr-26 00:30N 32°09' W 117°26'4 7.2
2017-Apr-25 23:55N 32°05' W 117°29'410.7
2017-Apr-25 23:30N 32°04' W 117°34'510.5
2017-Apr-25 23:00N 32°03' W 117°40'5 9.9
2017-Apr-25 22:30N 32°01' W 117°46'5 9.8
2017-Apr-25 22:00N 31°60' W 117°51'6 9.5
2017-Apr-25 21:25N 31°58' W 117°58'4 9.5
2017-Apr-25 21:00N 31°58' W 118°02'4 8.0
2017-Apr-25 20:30N 31°58' W 118°07'4 7.0
2017-Apr-25 19:58N 31°55' W 118°10'4 6.3
2017-Apr-25 19:20N 31°52' W 118°08'4 6.7
2017-Apr-25 18:48N 31°49' W 118°05'34 6.7
2017-Apr-25 13:50N 31°58' W 117°27'3 8.0
2017-Apr-25 13:29N 32°01' W 117°28'4 8.2
2017-Apr-25 13:00N 32°05' W 117°30'4 8.1
2017-Apr-25 12:30N 32°09' W 117°31'4 7.8
2017-Apr-25 12:00N 32°12' W 117°32'4 7.8
2017-Apr-25 11:30N 32°16' W 117°34'4 7.9
2017-Apr-25 11:00N 32°20' W 117°35'4 8.2
2017-Apr-25 10:30N 32°24' W 117°37'4 8.1
2017-Apr-25 10:00N 32°27' W 117°39'4 8.0
2017-Apr-25 09:30N 32°31' W 117°41'4 8.0
2017-Apr-25 09:00N 32°35' W 117°42'5 9.6
2017-Apr-25 08:30N 32°39' W 117°44'510.1
2017-Apr-25 08:00N 32°44' W 117°47'510.2
2017-Apr-25 07:30N 32°49' W 117°49'510.3
2017-Apr-25 07:00N 32°53' W 117°51'510.1
2017-Apr-25 06:30N 32°58' W 117°54'510.0
2017-Apr-25 06:00N 33°03' W 117°56'5 9.7
2017-Apr-25 05:30N 33°07' W 117°58'5 9.9
2017-Apr-25 05:00N 33°12' W 118°01'5 9.9
2017-Apr-25 04:30N 33°16' W 118°03'510.3
2017-Apr-25 04:00N 33°20' W 118°07'510.0
2017-Apr-25 03:30N 33°25' W 118°09'510.2
2017-Apr-25 03:00N 33°30' W 118°11'510.8
2017-Apr-25 02:30N 33°35' W 118°13'510.0
2017-Apr-25 02:00N 33°40' W 118°12'4 8.7
2017-Apr-25 01:30N 33°44' W 118°11'1 2.0
2017-Apr-25 00:58N 33°45' W 118°11'0 0.0
2017-Apr-25 00:28N 33°45' W 118°11'0 0.0
2017-Apr-24 23:15N 33°45' W 118°11'0 0.0
2017-Apr-24 21:20N 33°45' W 118°11'0 0.0
2017-Apr-24 20:08N 33°45' W 118°11'0 0.0
2017-Apr-24 19:50N 33°45' W 118°11'0 0.0
2017-Apr-24 18:25N 33°45' W 118°11'0 0.0
2017-Apr-24 17:49N 33°45' W 118°11'0 0.0
2017-Apr-24 17:25N 33°45' W 118°11'0 0.0
2017-Apr-24 16:55N 33°45' W 118°11'0 0.0
2017-Apr-24 16:06N 33°45' W 118°11'0 0.0
2017-Apr-24 16:00N 33°45' W 118°11'0 0.0
2017-Apr-24 15:18N 33°45' W 118°11'0 0.0
2017-Apr-24 15:00N 33°45' W 118°11'0 0.0
2017-Apr-24 14:23N 33°45' W 118°11'0 0.0
2017-Apr-24 13:17N 33°45' W 118°11'0 0.0
2017-Apr-24 13:00N 33°45' W 118°11'1 1.4
2017-Apr-24 12:24N 33°44' W 118°11'3 6.9
2017-Apr-24 11:58N 33°41' W 118°11'4 9.8
2017-Apr-24 11:30N 33°37' W 118°10'611.8
2017-Apr-24 11:00N 33°31' W 118°08'611.8
2017-Apr-24 10:30N 33°26' W 118°05'612.1
2017-Apr-24 10:00N 33°20' W 118°03'713.9
2017-Apr-24 09:30N 33°14' W 117°59'816.1
2017-Apr-24 09:00N 33°06' W 117°56'815.7
2017-Apr-24 08:31N 32°59' W 117°53'815.3
2017-Apr-24 08:01N 32°52' W 117°49'815.3
2017-Apr-24 07:30N 32°44' W 117°47'815.1
2017-Apr-24 07:00N 32°37' W 117°45'815.1
2017-Apr-24 06:31N 32°30' W 117°42'715.0
2017-Apr-24 06:01N 32°23' W 117°39'714.4
2017-Apr-24 05:31N 32°16' W 117°36'714.2
2017-Apr-24 05:00N 32°10' W 117°31'714.9
2017-Apr-24 04:30N 32°07' W 117°23'1115.0
2017-Apr-24 03:48N 32°02' W 117°12'415.1
2017-Apr-24 03:30N 31°60' W 117°07'25 1.8
2017-Apr-23 13:29N 31°50' W 116°40'3 7.2
2017-Apr-23 13:00N 31°50' W 116°44'4 7.1
2017-Apr-23 12:31N 31°50' W 116°48'4 7.2
2017-Apr-23 12:00N 31°50' W 116°52'4 7.3
2017-Apr-23 11:31N 31°50' W 116°57'3 6.9
2017-Apr-23 11:01N 31°50' W 117°01'4 7.2
2017-Apr-23 10:30N 31°50' W 117°05'4 7.2
2017-Apr-23 10:01N 31°50' W 117°09'4 7.2
2017-Apr-23 09:30N 31°49' W 117°13'4 7.2
2017-Apr-23 09:01N 31°45' W 117°12'4 7.2
2017-Apr-23 08:31N 31°42' W 117°10'4 7.4
2017-Apr-23 08:00N 31°39' W 117°08'4 7.7
2017-Apr-23 07:31N 31°36' W 117°06'4 7.5
2017-Apr-23 07:01N 31°32' W 117°04'3 6.9
2017-Apr-23 06:31N 31°29' W 117°02'3 6.4
2017-Apr-23 06:00N 31°26' W 117°01'4 7.5
2017-Apr-23 05:31N 31°24' W 117°05'4 7.4
2017-Apr-23 05:00N 31°22' W 117°09'4 7.5
2017-Apr-23 04:30N 31°21' W 117°13'4 7.6
2017-Apr-23 04:01N 31°19' W 117°17'4 7.6
2017-Apr-23 03:30N 31°17' W 117°21'4 7.4
2017-Apr-23 03:01N 31°15' W 117°24'4 7.4
2017-Apr-23 02:31N 31°14' W 117°28'4 7.4
2017-Apr-23 02:00N 31°12' W 117°32'4 7.4
2017-Apr-23 01:30N 31°10' W 117°36'4 7.3
2017-Apr-23 01:01N 31°08' W 117°40'3 6.8
2017-Apr-23 00:30N 31°11' W 117°43'4 7.4
2017-Apr-23 00:01N 31°13' W 117°45'4 7.4
2017-Apr-22 23:30N 31°16' W 117°48'4 7.8
2017-Apr-22 23:00N 31°19' W 117°51'4 7.8
2017-Apr-22 22:30N 31°23' W 117°54'4 7.7
2017-Apr-22 22:00N 31°26' W 117°56'4 7.7
2017-Apr-22 21:31N 31°29' W 117°59'4 7.7
2017-Apr-22 21:01N 31°32' W 118°02'4 7.8
2017-Apr-22 20:30N 31°35' W 118°05'4 7.8
2017-Apr-22 20:00N 31°38' W 118°07'4 8.3
2017-Apr-22 19:31N 31°41' W 118°10'4 7.5
2017-Apr-22 19:01N 31°45' W 118°12'4 7.3
2017-Apr-22 18:31N 31°46' W 118°08'4 7.4
2017-Apr-22 18:01N 31°47' W 118°04'4 7.1
2017-Apr-22 17:31N 31°48' W 117°60'4 7.2
2017-Apr-22 17:01N 31°49' W 117°56'4 7.5
2017-Apr-22 16:31N 31°51' W 117°52'4 8.3
2017-Apr-22 16:01N 31°52' W 117°47'4 8.4
2017-Apr-22 15:31N 31°54' W 117°43'4 8.0
2017-Apr-22 15:00N 31°55' W 117°38'4 7.2
2017-Apr-22 14:31N 31°56' W 117°34'6 6.0
2017-Apr-22 13:30N 31°59' W 117°28'4 7.3
2017-Apr-22 13:00N 32°03' W 117°30'4 7.4
2017-Apr-22 12:31N 32°06' W 117°32'4 7.1
2017-Apr-22 12:01N 32°09' W 117°33'4 7.3
2017-Apr-22 11:31N 32°13' W 117°34'4 7.5
2017-Apr-22 11:00N 32°16' W 117°36'3 6.9
2017-Apr-22 10:31N 32°20' W 117°38'4 7.5
2017-Apr-22 10:01N 32°23' W 117°39'4 7.7
2017-Apr-22 09:31N 32°27' W 117°41'4 7.5
2017-Apr-22 09:01N 32°30' W 117°43'4 7.5
2017-Apr-22 08:31N 32°33' W 117°45'4 7.9
2017-Apr-22 08:00N 32°37' W 117°46'510.4
2017-Apr-22 07:31N 32°42' W 117°49'510.2
2017-Apr-22 07:01N 32°46' W 117°52'510.1
2017-Apr-22 06:30N 32°51' W 117°53'510.5
2017-Apr-22 06:00N 32°56' W 117°55'510.5
2017-Apr-22 05:31N 33°01' W 117°57'510.6
2017-Apr-22 05:00N 33°06' W 117°60'510.8
2017-Apr-22 04:31N 33°11' W 118°02'510.8
2017-Apr-22 04:00N 33°16' W 118°05'510.6
2017-Apr-22 03:31N 33°21' W 118°07'510.9
2017-Apr-22 03:00N 33°26' W 118°09'611.2
2017-Apr-22 02:31N 33°31' W 118°12'510.9
2017-Apr-22 02:01N 33°37' W 118°13'510.2
2017-Apr-22 01:31N 33°42' W 118°11'3 6.4
2017-Apr-22 00:58N 33°45' W 118°11'0 0.0
2017-Apr-22 00:30N 33°45' W 118°11'0 0.0
2017-Apr-22 00:00N 33°45' W 118°11'0 0.0
2017-Apr-21 23:30N 33°45' W 118°11'0 0.0
2017-Apr-21 22:57N 33°45' W 118°11'0 0.0
2017-Apr-21 22:30N 33°45' W 118°11'0 0.0
2017-Apr-21 21:59N 33°45' W 118°11'0 0.0
2017-Apr-21 21:29N 33°45' W 118°11'0 0.0
2017-Apr-21 20:59N 33°45' W 118°11'0 0.0
2017-Apr-21 20:29N 33°45' W 118°11'0 0.0
2017-Apr-21 19:59N 33°45' W 118°11'0 0.0
2017-Apr-21 19:28N 33°45' W 118°11'0 0.0
2017-Apr-21 18:58N 33°45' W 118°11'0 0.0
2017-Apr-21 18:22N 33°45' W 118°11'0 0.0
2017-Apr-21 17:55N 33°45' W 118°11'0 0.0
2017-Apr-21 17:30N 33°45' W 118°11'0 0.0
2017-Apr-21 17:00N 33°45' W 118°11'0 0.0
2017-Apr-21 16:30N 33°45' W 118°11'0 0.0
2017-Apr-21 16:00N 33°45' W 118°11'0 0.0
2017-Apr-21 15:30N 33°45' W 118°11'0 0.0
2017-Apr-21 14:59N 33°45' W 118°11'0 0.0
2017-Apr-21 14:17N 33°45' W 118°11'0 0.0
2017-Apr-21 13:31N 33°45' W 118°11'0 0.0
2017-Apr-21 13:01N 33°45' W 118°11'0 0.6
2017-Apr-21 12:31N 33°45' W 118°11'3 6.1
2017-Apr-21 12:01N 33°42' W 118°11'510.4
2017-Apr-21 11:30N 33°37' W 118°10'510.8
2017-Apr-21 11:01N 33°32' W 118°08'510.6
2017-Apr-21 10:30N 33°27' W 118°06'510.9
2017-Apr-21 10:01N 33°22' W 118°03'815.7
2017-Apr-21 09:30N 33°14' W 117°60'815.7
2017-Apr-21 09:00N 33°07' W 117°57'815.4
2017-Apr-21 08:30N 32°59' W 117°54'815.6
2017-Apr-21 08:00N 32°52' W 117°52'815.7
2017-Apr-21 07:30N 32°45' W 117°48'815.2
2017-Apr-21 07:00N 32°37' W 117°46'815.0
2017-Apr-21 06:30N 32°30' W 117°43'815.1
2017-Apr-21 06:00N 32°23' W 117°39'714.9
2017-Apr-21 05:31N 32°16' W 117°36'713.9
2017-Apr-21 05:00N 32°11' W 117°31'714.9
2017-Apr-21 04:30N 32°07' W 117°24'715.0
2017-Apr-21 04:01N 32°04' W 117°16'715.0
2017-Apr-21 03:31N 31°60' W 117°08'714.9
2017-Apr-21 03:00N 31°57' W 116°60'714.8
2017-Apr-21 02:30N 31°54' W 116°52'714.8
2017-Apr-21 02:00N 31°51' W 116°44'10 0.8
2017-Apr-20 12:24N 31°56' W 116°55'6 9.2
2017-Apr-20 11:47N 31°58' W 117°01'2 9.1
2017-Apr-20 11:31N 31°59' W 117°04'5 9.2
2017-Apr-20 11:01N 32°00' W 117°09'5 9.6
2017-Apr-20 10:31N 32°02' W 117°14'5 9.9
2017-Apr-20 10:00N 32°04' W 117°19'5 9.9
2017-Apr-20 09:30N 32°06' W 117°25'5 9.9
2017-Apr-20 08:58N 32°08' W 117°31'4 9.0
2017-Apr-20 08:30N 32°11' W 117°34'5 9.9
2017-Apr-20 08:00N 32°15' W 117°37'5 9.8
2017-Apr-20 07:31N 32°20' W 117°39'5 9.7
2017-Apr-20 07:00N 32°24' W 117°42'5 9.8
2017-Apr-20 06:31N 32°28' W 117°46'5 9.8
2017-Apr-20 06:01N 32°32' W 117°49'5 9.3
2017-Apr-20 05:31N 32°36' W 117°50'611.2
2017-Apr-20 05:00N 32°41' W 117°53'611.3
2017-Apr-20 04:31N 32°47' W 117°56'611.1
2017-Apr-20 04:01N 32°52' W 117°59'611.2
2017-Apr-20 03:31N 32°57' W 118°02'611.3
2017-Apr-20 03:01N 33°02' W 118°05'611.5
2017-Apr-20 02:31N 33°07' W 118°08'611.4
2017-Apr-20 02:01N 33°12' W 118°11'611.2
2017-Apr-20 01:31N 33°17' W 118°14'4 7.3
2017-Apr-20 01:01N 33°20' W 118°17'1 1.7
2017-Apr-20 00:31N 33°20' W 118°17'1 2.2
2017-Apr-20 00:01N 33°21' W 118°18'1 1.1
2017-Apr-19 23:28N 33°21' W 118°19'0 0.0
2017-Apr-19 22:58N 33°21' W 118°19'0 0.0
2017-Apr-19 22:25N 33°21' W 118°19'0 0.0
2017-Apr-19 21:58N 33°21' W 118°19'0 0.0
2017-Apr-19 21:31N 33°21' W 118°19'0 0.1
2017-Apr-19 21:00N 33°21' W 118°19'0 0.1
2017-Apr-19 20:30N 33°21' W 118°19'0 0.1
2017-Apr-19 20:00N 33°21' W 118°19'0 0.1
2017-Apr-19 19:24N 33°21' W 118°19'0 0.0
2017-Apr-19 18:59N 33°21' W 118°19'0 0.0
2017-Apr-19 18:29N 33°21' W 118°19'0 0.0
2017-Apr-19 17:59N 33°21' W 118°19'0 0.0
2017-Apr-19 17:29N 33°21' W 118°19'0 0.1
2017-Apr-19 16:59N 33°21' W 118°19'0 0.0
2017-Apr-19 16:28N 33°21' W 118°19'0 0.0
2017-Apr-19 15:58N 33°21' W 118°19'0 0.0
2017-Apr-19 15:16N 33°21' W 118°19'0 0.1
2017-Apr-19 14:58N 33°21' W 118°19'0 0.0
2017-Apr-19 14:30N 33°21' W 118°19'4 3.9
2017-Apr-19 13:31N 33°18' W 118°17'4 7.5
2017-Apr-19 13:01N 33°14' W 118°16'  

Dump ship's entire track history